sensor_id;sensor_type;location;lat;lon;timestamp;P1;durP1;ratioP1;P2;durP2;ratioP2
5199;SDS011;2619;47.868;11.892;2023-09-18T00:00:43;13.20;;;8.87;;
5199;SDS011;2619;47.868;11.892;2023-09-18T00:03:09;12.70;;;8.67;;
5199;SDS011;2619;47.868;11.892;2023-09-18T00:05:35;9.87;;;8.00;;
5199;SDS011;2619;47.868;11.892;2023-09-18T00:08:00;10.40;;;9.00;;
5199;SDS011;2619;47.868;11.892;2023-09-18T00:10:29;10.17;;;8.67;;
5199;SDS011;2619;47.868;11.892;2023-09-18T00:12:55;16.13;;;8.63;;
5199;SDS011;2619;47.868;11.892;2023-09-18T00:15:21;11.33;;;8.77;;
5199;SDS011;2619;47.868;11.892;2023-09-18T00:17:47;10.63;;;8.03;;
5199;SDS011;2619;47.868;11.892;2023-09-18T00:20:13;13.37;;;8.67;;
5199;SDS011;2619;47.868;11.892;2023-09-18T00:22:39;9.97;;;7.60;;
5199;SDS011;2619;47.868;11.892;2023-09-18T00:25:04;9.37;;;7.73;;
5199;SDS011;2619;47.868;11.892;2023-09-18T00:27:30;11.80;;;7.73;;
5199;SDS011;2619;47.868;11.892;2023-09-18T00:29:57;9.63;;;8.27;;
5199;SDS011;2619;47.868;11.892;2023-09-18T00:32:23;11.70;;;8.40;;
5199;SDS011;2619;47.868;11.892;2023-09-18T00:34:48;9.50;;;7.70;;
5199;SDS011;2619;47.868;11.892;2023-09-18T00:37:14;10.73;;;8.80;;
5199;SDS011;2619;47.868;11.892;2023-09-18T00:39:41;11.30;;;8.30;;
5199;SDS011;2619;47.868;11.892;2023-09-18T00:42:08;9.13;;;8.13;;
5199;SDS011;2619;47.868;11.892;2023-09-18T00:44:38;11.80;;;8.40;;
5199;SDS011;2619;47.868;11.892;2023-09-18T00:47:03;8.87;;;6.90;;
5199;SDS011;2619;47.868;11.892;2023-09-18T00:49:29;10.60;;;7.97;;
5199;SDS011;2619;47.868;11.892;2023-09-18T00:51:55;12.03;;;9.00;;
5199;SDS011;2619;47.868;11.892;2023-09-18T00:54:21;10.10;;;8.33;;
5199;SDS011;2619;47.868;11.892;2023-09-18T00:56:47;9.17;;;7.53;;
5199;SDS011;2619;47.868;11.892;2023-09-18T00:59:13;9.67;;;8.07;;
5199;SDS011;2619;47.868;11.892;2023-09-18T01:01:40;11.10;;;7.90;;
5199;SDS011;2619;47.868;11.892;2023-09-18T01:04:07;10.80;;;7.50;;
5199;SDS011;2619;47.868;11.892;2023-09-18T01:06:33;10.43;;;7.57;;
5199;SDS011;2619;47.868;11.892;2023-09-18T01:08:58;11.40;;;8.40;;
5199;SDS011;2619;47.868;11.892;2023-09-18T01:11:35;13.67;;;8.20;;
5199;SDS011;2619;47.868;11.892;2023-09-18T01:14:11;9.77;;;6.87;;
5199;SDS011;2619;47.868;11.892;2023-09-18T01:16:50;13.30;;;8.57;;
5199;SDS011;2619;47.868;11.892;2023-09-18T01:19:35;11.50;;;7.90;;
5199;SDS011;2619;47.868;11.892;2023-09-18T01:22:03;10.57;;;8.00;;
5199;SDS011;2619;47.868;11.892;2023-09-18T01:24:30;10.57;;;8.70;;
5199;SDS011;2619;47.868;11.892;2023-09-18T01:26:56;9.80;;;8.20;;
5199;SDS011;2619;47.868;11.892;2023-09-18T01:29:22;15.27;;;8.70;;
5199;SDS011;2619;47.868;11.892;2023-09-18T01:31:47;12.17;;;7.80;;
5199;SDS011;2619;47.868;11.892;2023-09-18T01:34:14;9.60;;;8.03;;
5199;SDS011;2619;47.868;11.892;2023-09-18T01:36:42;9.10;;;7.40;;
5199;SDS011;2619;47.868;11.892;2023-09-18T01:39:09;10.20;;;8.17;;
5199;SDS011;2619;47.868;11.892;2023-09-18T01:41:36;12.50;;;7.40;;
5199;SDS011;2619;47.868;11.892;2023-09-18T01:44:03;11.60;;;7.70;;
5199;SDS011;2619;47.868;11.892;2023-09-18T01:46:29;11.53;;;8.20;;
5199;SDS011;2619;47.868;11.892;2023-09-18T01:48:57;11.23;;;8.33;;
5199;SDS011;2619;47.868;11.892;2023-09-18T01:51:24;10.40;;;7.50;;
5199;SDS011;2619;47.868;11.892;2023-09-18T01:53:50;11.13;;;7.70;;
5199;SDS011;2619;47.868;11.892;2023-09-18T01:56:16;13.87;;;8.23;;
5199;SDS011;2619;47.868;11.892;2023-09-18T01:58:42;11.50;;;8.00;;
5199;SDS011;2619;47.868;11.892;2023-09-18T02:01:08;11.57;;;7.83;;
5199;SDS011;2619;47.868;11.892;2023-09-18T02:03:33;9.70;;;7.57;;
5199;SDS011;2619;47.868;11.892;2023-09-18T02:05:59;8.33;;;6.80;;
5199;SDS011;2619;47.868;11.892;2023-09-18T02:08:24;12.20;;;7.27;;
5199;SDS011;2619;47.868;11.892;2023-09-18T02:10:50;11.40;;;7.30;;
5199;SDS011;2619;47.868;11.892;2023-09-18T02:13:15;9.43;;;7.87;;
5199;SDS011;2619;47.868;11.892;2023-09-18T02:15:43;8.37;;;7.10;;
5199;SDS011;2619;47.868;11.892;2023-09-18T02:18:08;9.33;;;6.97;;
5199;SDS011;2619;47.868;11.892;2023-09-18T02:20:40;11.67;;;8.13;;
5199;SDS011;2619;47.868;11.892;2023-09-18T02:23:07;11.63;;;7.80;;
5199;SDS011;2619;47.868;11.892;2023-09-18T02:25:32;11.87;;;7.40;;
5199;SDS011;2619;47.868;11.892;2023-09-18T02:27:58;9.20;;;7.80;;
5199;SDS011;2619;47.868;11.892;2023-09-18T02:30:23;7.70;;;6.73;;
5199;SDS011;2619;47.868;11.892;2023-09-18T02:32:49;9.77;;;6.93;;
5199;SDS011;2619;47.868;11.892;2023-09-18T02:35:15;10.50;;;7.40;;
5199;SDS011;2619;47.868;11.892;2023-09-18T02:37:41;13.13;;;8.40;;
5199;SDS011;2619;47.868;11.892;2023-09-18T02:40:06;9.90;;;7.27;;
5199;SDS011;2619;47.868;11.892;2023-09-18T02:42:32;9.90;;;7.37;;
5199;SDS011;2619;47.868;11.892;2023-09-18T02:44:58;11.77;;;8.00;;
5199;SDS011;2619;47.868;11.892;2023-09-18T02:47:24;9.30;;;7.00;;
5199;SDS011;2619;47.868;11.892;2023-09-18T02:49:49;9.47;;;6.43;;
5199;SDS011;2619;47.868;11.892;2023-09-18T02:52:15;9.10;;;7.00;;
5199;SDS011;2619;47.868;11.892;2023-09-18T02:54:40;10.93;;;7.73;;
5199;SDS011;2619;47.868;11.892;2023-09-18T02:57:06;11.63;;;7.57;;
5199;SDS011;2619;47.868;11.892;2023-09-18T02:59:31;10.60;;;7.30;;
5199;SDS011;2619;47.868;11.892;2023-09-18T03:01:57;9.47;;;7.60;;
5199;SDS011;2619;47.868;11.892;2023-09-18T03:04:22;10.80;;;7.40;;
5199;SDS011;2619;47.868;11.892;2023-09-18T03:06:48;10.97;;;7.43;;
5199;SDS011;2619;47.868;11.892;2023-09-18T03:09:14;11.23;;;7.70;;
5199;SDS011;2619;47.868;11.892;2023-09-18T03:11:41;10.10;;;7.93;;
5199;SDS011;2619;47.868;11.892;2023-09-18T03:14:08;12.10;;;8.40;;
5199;SDS011;2619;47.868;11.892;2023-09-18T03:16:34;13.10;;;8.80;;
5199;SDS011;2619;47.868;11.892;2023-09-18T03:18:59;9.20;;;7.17;;
5199;SDS011;2619;47.868;11.892;2023-09-18T03:21:25;9.60;;;8.10;;
5199;SDS011;2619;47.868;11.892;2023-09-18T03:23:51;9.87;;;8.30;;
5199;SDS011;2619;47.868;11.892;2023-09-18T03:26:16;12.40;;;8.30;;
5199;SDS011;2619;47.868;11.892;2023-09-18T03:28:42;13.10;;;7.83;;
5199;SDS011;2619;47.868;11.892;2023-09-18T03:31:07;8.20;;;7.40;;
5199;SDS011;2619;47.868;11.892;2023-09-18T03:33:33;12.90;;;8.37;;
5199;SDS011;2619;47.868;11.892;2023-09-18T03:35:59;15.53;;;8.13;;
5199;SDS011;2619;47.868;11.892;2023-09-18T03:38:24;10.13;;;7.93;;
5199;SDS011;2619;47.868;11.892;2023-09-18T03:40:50;11.87;;;7.60;;
5199;SDS011;2619;47.868;11.892;2023-09-18T03:43:15;10.10;;;7.80;;
5199;SDS011;2619;47.868;11.892;2023-09-18T03:45:42;11.43;;;8.00;;
5199;SDS011;2619;47.868;11.892;2023-09-18T03:48:07;12.90;;;8.60;;
5199;SDS011;2619;47.868;11.892;2023-09-18T03:50:33;9.80;;;8.10;;
5199;SDS011;2619;47.868;11.892;2023-09-18T03:52:59;10.63;;;8.27;;
5199;SDS011;2619;47.868;11.892;2023-09-18T03:55:24;13.57;;;8.30;;
5199;SDS011;2619;47.868;11.892;2023-09-18T03:57:51;10.50;;;7.87;;
5199;SDS011;2619;47.868;11.892;2023-09-18T04:00:17;11.20;;;8.07;;
5199;SDS011;2619;47.868;11.892;2023-09-18T04:02:43;11.53;;;7.93;;
5199;SDS011;2619;47.868;11.892;2023-09-18T04:05:08;12.90;;;8.33;;
5199;SDS011;2619;47.868;11.892;2023-09-18T04:07:34;10.27;;;8.63;;
5199;SDS011;2619;47.868;11.892;2023-09-18T04:10:00;12.17;;;7.80;;
5199;SDS011;2619;47.868;11.892;2023-09-18T04:12:26;11.33;;;8.30;;
5199;SDS011;2619;47.868;11.892;2023-09-18T04:14:51;11.57;;;8.10;;
5199;SDS011;2619;47.868;11.892;2023-09-18T04:17:17;9.33;;;7.33;;
5199;SDS011;2619;47.868;11.892;2023-09-18T04:19:43;9.40;;;7.67;;
5199;SDS011;2619;47.868;11.892;2023-09-18T04:22:09;10.80;;;8.57;;
5199;SDS011;2619;47.868;11.892;2023-09-18T04:24:34;8.77;;;7.60;;
5199;SDS011;2619;47.868;11.892;2023-09-18T04:27:00;10.10;;;7.20;;
5199;SDS011;2619;47.868;11.892;2023-09-18T04:29:26;13.90;;;7.60;;
5199;SDS011;2619;47.868;11.892;2023-09-18T04:31:52;9.63;;;7.33;;
5199;SDS011;2619;47.868;11.892;2023-09-18T04:34:19;8.77;;;7.40;;
5199;SDS011;2619;47.868;11.892;2023-09-18T04:36:45;9.47;;;7.67;;
5199;SDS011;2619;47.868;11.892;2023-09-18T04:39:11;10.80;;;7.70;;
5199;SDS011;2619;47.868;11.892;2023-09-18T04:41:36;11.30;;;7.83;;
5199;SDS011;2619;47.868;11.892;2023-09-18T04:44:02;10.83;;;7.20;;
5199;SDS011;2619;47.868;11.892;2023-09-18T04:46:29;10.87;;;7.53;;
5199;SDS011;2619;47.868;11.892;2023-09-18T04:48:55;9.00;;;7.60;;
5199;SDS011;2619;47.868;11.892;2023-09-18T04:51:27;10.20;;;6.90;;
5199;SDS011;2619;47.868;11.892;2023-09-18T04:53:52;12.53;;;7.70;;
5199;SDS011;2619;47.868;11.892;2023-09-18T04:56:19;27.60;;;10.00;;
5199;SDS011;2619;47.868;11.892;2023-09-18T04:58:45;15.43;;;7.57;;
5199;SDS011;2619;47.868;11.892;2023-09-18T05:01:11;11.90;;;8.50;;
5199;SDS011;2619;47.868;11.892;2023-09-18T05:03:36;17.07;;;9.43;;
5199;SDS011;2619;47.868;11.892;2023-09-18T05:06:02;15.70;;;9.10;;
5199;SDS011;2619;47.868;11.892;2023-09-18T05:08:29;9.90;;;7.87;;
5199;SDS011;2619;47.868;11.892;2023-09-18T05:10:54;16.00;;;9.50;;
5199;SDS011;2619;47.868;11.892;2023-09-18T05:13:20;20.40;;;14.97;;
5199;SDS011;2619;47.868;11.892;2023-09-18T05:15:47;16.03;;;10.30;;
5199;SDS011;2619;47.868;11.892;2023-09-18T05:18:12;13.33;;;9.07;;
5199;SDS011;2619;47.868;11.892;2023-09-18T05:20:39;12.83;;;8.13;;
5199;SDS011;2619;47.868;11.892;2023-09-18T05:23:04;15.50;;;8.43;;
5199;SDS011;2619;47.868;11.892;2023-09-18T05:25:30;13.63;;;9.20;;
5199;SDS011;2619;47.868;11.892;2023-09-18T05:27:57;13.00;;;8.00;;
5199;SDS011;2619;47.868;11.892;2023-09-18T05:30:34;14.47;;;10.40;;
5199;SDS011;2619;47.868;11.892;2023-09-18T05:33:03;14.10;;;9.60;;
5199;SDS011;2619;47.868;11.892;2023-09-18T05:35:34;14.37;;;9.93;;
5199;SDS011;2619;47.868;11.892;2023-09-18T05:38:03;11.93;;;9.30;;
5199;SDS011;2619;47.868;11.892;2023-09-18T05:40:30;13.60;;;9.60;;
5199;SDS011;2619;47.868;11.892;2023-09-18T05:42:56;13.50;;;8.60;;
5199;SDS011;2619;47.868;11.892;2023-09-18T05:45:21;13.00;;;8.30;;
5199;SDS011;2619;47.868;11.892;2023-09-18T05:47:48;11.30;;;7.80;;
5199;SDS011;2619;47.868;11.892;2023-09-18T05:50:14;11.77;;;7.40;;
5199;SDS011;2619;47.868;11.892;2023-09-18T05:52:42;8.70;;;6.73;;
5199;SDS011;2619;47.868;11.892;2023-09-18T05:55:08;14.37;;;10.40;;
5199;SDS011;2619;47.868;11.892;2023-09-18T05:57:35;8.90;;;6.27;;
5199;SDS011;2619;47.868;11.892;2023-09-18T06:00:01;11.33;;;6.77;;
5199;SDS011;2619;47.868;11.892;2023-09-18T06:02:27;9.83;;;6.33;;
5199;SDS011;2619;47.868;11.892;2023-09-18T06:04:54;11.07;;;6.07;;
5199;SDS011;2619;47.868;11.892;2023-09-18T06:07:21;10.03;;;5.40;;
5199;SDS011;2619;47.868;11.892;2023-09-18T06:09:48;7.63;;;4.90;;
5199;SDS011;2619;47.868;11.892;2023-09-18T06:12:13;8.90;;;4.40;;
5199;SDS011;2619;47.868;11.892;2023-09-18T06:14:39;8.27;;;4.50;;
5199;SDS011;2619;47.868;11.892;2023-09-18T06:17:04;4.63;;;3.97;;
5199;SDS011;2619;47.868;11.892;2023-09-18T06:19:31;8.13;;;4.13;;
5199;SDS011;2619;47.868;11.892;2023-09-18T06:21:57;5.13;;;4.13;;
5199;SDS011;2619;47.868;11.892;2023-09-18T06:24:23;5.00;;;4.00;;
5199;SDS011;2619;47.868;11.892;2023-09-18T06:26:49;5.83;;;3.50;;
5199;SDS011;2619;47.868;11.892;2023-09-18T06:29:15;8.70;;;4.60;;
5199;SDS011;2619;47.868;11.892;2023-09-18T06:31:41;5.60;;;4.60;;
5199;SDS011;2619;47.868;11.892;2023-09-18T06:34:07;6.40;;;4.83;;
5199;SDS011;2619;47.868;11.892;2023-09-18T06:36:33;5.77;;;4.07;;
5199;SDS011;2619;47.868;11.892;2023-09-18T06:38:58;6.93;;;5.10;;
5199;SDS011;2619;47.868;11.892;2023-09-18T06:41:24;5.83;;;4.90;;
5199;SDS011;2619;47.868;11.892;2023-09-18T06:43:49;9.70;;;5.40;;
5199;SDS011;2619;47.868;11.892;2023-09-18T06:46:15;7.40;;;4.43;;
5199;SDS011;2619;47.868;11.892;2023-09-18T06:48:41;5.90;;;4.03;;
5199;SDS011;2619;47.868;11.892;2023-09-18T06:51:10;8.03;;;4.50;;
5199;SDS011;2619;47.868;11.892;2023-09-18T06:53:36;6.53;;;4.37;;
5199;SDS011;2619;47.868;11.892;2023-09-18T06:56:01;10.77;;;4.30;;
5199;SDS011;2619;47.868;11.892;2023-09-18T06:58:27;6.60;;;4.37;;
5199;SDS011;2619;47.868;11.892;2023-09-18T07:00:53;7.20;;;4.40;;
5199;SDS011;2619;47.868;11.892;2023-09-18T07:03:18;8.23;;;4.40;;
5199;SDS011;2619;47.868;11.892;2023-09-18T07:05:44;7.90;;;4.37;;
5199;SDS011;2619;47.868;11.892;2023-09-18T07:08:11;6.40;;;4.90;;
5199;SDS011;2619;47.868;11.892;2023-09-18T07:10:38;10.47;;;5.40;;
5199;SDS011;2619;47.868;11.892;2023-09-18T07:13:05;7.33;;;5.20;;
5199;SDS011;2619;47.868;11.892;2023-09-18T07:15:30;8.73;;;5.70;;
5199;SDS011;2619;47.868;11.892;2023-09-18T07:17:56;7.10;;;4.67;;
5199;SDS011;2619;47.868;11.892;2023-09-18T07:20:21;9.63;;;4.30;;
5199;SDS011;2619;47.868;11.892;2023-09-18T07:22:48;6.00;;;4.07;;
5199;SDS011;2619;47.868;11.892;2023-09-18T07:25:15;6.50;;;4.40;;
5199;SDS011;2619;47.868;11.892;2023-09-18T07:27:41;8.40;;;4.90;;
5199;SDS011;2619;47.868;11.892;2023-09-18T07:30:12;7.00;;;4.33;;
5199;SDS011;2619;47.868;11.892;2023-09-18T07:32:42;7.33;;;4.47;;
5199;SDS011;2619;47.868;11.892;2023-09-18T07:35:08;6.97;;;4.37;;
5199;SDS011;2619;47.868;11.892;2023-09-18T07:37:35;8.00;;;4.40;;
5199;SDS011;2619;47.868;11.892;2023-09-18T07:40:01;9.07;;;4.60;;
5199;SDS011;2619;47.868;11.892;2023-09-18T07:42:33;8.70;;;4.50;;
5199;SDS011;2619;47.868;11.892;2023-09-18T07:44:59;9.83;;;4.60;;
5199;SDS011;2619;47.868;11.892;2023-09-18T07:47:25;11.87;;;4.80;;
5199;SDS011;2619;47.868;11.892;2023-09-18T07:49:50;9.43;;;4.80;;
5199;SDS011;2619;47.868;11.892;2023-09-18T07:52:17;7.27;;;4.53;;
5199;SDS011;2619;47.868;11.892;2023-09-18T07:54:43;8.47;;;4.60;;
5199;SDS011;2619;47.868;11.892;2023-09-18T09:24:05;10.47;;;4.30;;
5199;SDS011;2619;47.868;11.892;2023-09-18T09:26:31;12.00;;;4.53;;
5199;SDS011;2619;47.868;11.892;2023-09-18T09:28:56;13.03;;;4.37;;
5199;SDS011;2619;47.868;11.892;2023-09-18T09:31:38;16.20;;;4.33;;
5199;SDS011;2619;47.868;11.892;2023-09-18T09:34:04;12.17;;;4.33;;
5199;SDS011;2619;47.868;11.892;2023-09-18T09:36:30;11.27;;;4.57;;
5199;SDS011;2619;47.868;11.892;2023-09-18T09:38:56;10.30;;;3.80;;
5199;SDS011;2619;47.868;11.892;2023-09-18T09:41:25;12.63;;;4.30;;
5199;SDS011;2619;47.868;11.892;2023-09-18T09:43:55;10.07;;;3.87;;
5199;SDS011;2619;47.868;11.892;2023-09-18T09:46:21;10.00;;;4.20;;
5199;SDS011;2619;47.868;11.892;2023-09-18T09:49:03;10.27;;;4.40;;
5199;SDS011;2619;47.868;11.892;2023-09-18T09:51:30;9.77;;;4.47;;
5199;SDS011;2619;47.868;11.892;2023-09-18T09:53:56;9.70;;;4.03;;
5199;SDS011;2619;47.868;11.892;2023-09-18T09:56:39;12.90;;;4.10;;
5199;SDS011;2619;47.868;11.892;2023-09-18T09:59:16;8.07;;;3.97;;
5199;SDS011;2619;47.868;11.892;2023-09-18T10:01:45;7.37;;;3.70;;
5199;SDS011;2619;47.868;11.892;2023-09-18T10:04:14;9.10;;;4.10;;
5199;SDS011;2619;47.868;11.892;2023-09-18T10:06:45;10.73;;;4.10;;
5199;SDS011;2619;47.868;11.892;2023-09-18T10:09:16;6.87;;;4.00;;
5199;SDS011;2619;47.868;11.892;2023-09-18T10:11:45;7.30;;;3.87;;
5199;SDS011;2619;47.868;11.892;2023-09-18T10:14:16;9.13;;;3.73;;
5199;SDS011;2619;47.868;11.892;2023-09-18T10:16:53;15.00;;;3.97;;
5199;SDS011;2619;47.868;11.892;2023-09-18T10:19:25;10.50;;;3.93;;
5199;SDS011;2619;47.868;11.892;2023-09-18T10:24:45;15.40;;;10.50;;
5199;SDS011;2619;47.868;11.892;2023-09-18T10:27:14;7.90;;;3.87;;
5199;SDS011;2619;47.868;11.892;2023-09-18T10:29:42;8.53;;;3.73;;
5199;SDS011;2619;47.868;11.892;2023-09-18T10:32:10;13.90;;;4.17;;
5199;SDS011;2619;47.868;11.892;2023-09-18T10:34:37;16.30;;;4.77;;
5199;SDS011;2619;47.868;11.892;2023-09-18T10:37:03;9.63;;;3.93;;
5199;SDS011;2619;47.868;11.892;2023-09-18T10:39:36;8.80;;;4.03;;
5199;SDS011;2619;47.868;11.892;2023-09-18T10:42:03;8.50;;;3.90;;
5199;SDS011;2619;47.868;11.892;2023-09-18T10:44:31;7.47;;;3.77;;
5199;SDS011;2619;47.868;11.892;2023-09-18T10:46:57;9.00;;;3.77;;
5199;SDS011;2619;47.868;11.892;2023-09-18T10:49:25;7.13;;;3.60;;
5199;SDS011;2619;47.868;11.892;2023-09-18T10:51:53;9.00;;;3.50;;
5199;SDS011;2619;47.868;11.892;2023-09-18T10:54:20;12.73;;;4.47;;
5199;SDS011;2619;47.868;11.892;2023-09-18T10:56:48;9.87;;;4.23;;
5199;SDS011;2619;47.868;11.892;2023-09-18T10:59:14;12.57;;;4.07;;
5199;SDS011;2619;47.868;11.892;2023-09-18T11:01:43;8.77;;;3.67;;
5199;SDS011;2619;47.868;11.892;2023-09-18T11:04:11;9.70;;;4.40;;
5199;SDS011;2619;47.868;11.892;2023-09-18T11:07:01;10.00;;;4.20;;
5199;SDS011;2619;47.868;11.892;2023-09-18T11:09:28;12.90;;;3.97;;
5199;SDS011;2619;47.868;11.892;2023-09-18T11:14:22;11.07;;;4.57;;
5199;SDS011;2619;47.868;11.892;2023-09-18T11:17:06;10.80;;;4.00;;
5199;SDS011;2619;47.868;11.892;2023-09-18T11:19:55;12.33;;;4.00;;
5199;SDS011;2619;47.868;11.892;2023-09-18T11:22:34;10.77;;;4.03;;
5199;SDS011;2619;47.868;11.892;2023-09-18T11:27:59;8.07;;;3.83;;
5199;SDS011;2619;47.868;11.892;2023-09-18T11:30:25;11.87;;;4.27;;
5199;SDS011;2619;47.868;11.892;2023-09-18T11:32:51;8.80;;;3.33;;
5199;SDS011;2619;47.868;11.892;2023-09-18T11:35:18;8.60;;;3.90;;
5199;SDS011;2619;47.868;11.892;2023-09-18T11:37:44;10.13;;;4.80;;
5199;SDS011;2619;47.868;11.892;2023-09-18T11:40:32;16.57;;;5.20;;
5199;SDS011;2619;47.868;11.892;2023-09-18T11:43:19;9.40;;;3.80;;
5199;SDS011;2619;47.868;11.892;2023-09-18T11:45:48;8.30;;;4.13;;
5199;SDS011;2619;47.868;11.892;2023-09-18T11:48:15;9.90;;;4.70;;
5199;SDS011;2619;47.868;11.892;2023-09-18T11:50:41;11.80;;;3.53;;
5199;SDS011;2619;47.868;11.892;2023-09-18T11:53:09;11.70;;;3.60;;
5199;SDS011;2619;47.868;11.892;2023-09-18T11:55:37;12.33;;;3.60;;
5199;SDS011;2619;47.868;11.892;2023-09-18T11:58:04;10.00;;;3.30;;
5199;SDS011;2619;47.868;11.892;2023-09-18T12:00:30;9.23;;;3.03;;
5199;SDS011;2619;47.868;11.892;2023-09-18T12:02:57;5.77;;;2.97;;
5199;SDS011;2619;47.868;11.892;2023-09-18T12:05:25;8.20;;;2.93;;
5199;SDS011;2619;47.868;11.892;2023-09-18T12:07:51;7.43;;;2.50;;
5199;SDS011;2619;47.868;11.892;2023-09-18T12:10:18;8.90;;;2.20;;
5199;SDS011;2619;47.868;11.892;2023-09-18T12:12:46;7.83;;;1.90;;
5199;SDS011;2619;47.868;11.892;2023-09-18T12:15:12;6.47;;;1.70;;
5199;SDS011;2619;47.868;11.892;2023-09-18T12:17:40;8.70;;;2.00;;
5199;SDS011;2619;47.868;11.892;2023-09-18T12:20:06;5.93;;;1.80;;
5199;SDS011;2619;47.868;11.892;2023-09-18T12:22:32;4.60;;;1.77;;
5199;SDS011;2619;47.868;11.892;2023-09-18T12:25:10;5.27;;;1.70;;
5199;SDS011;2619;47.868;11.892;2023-09-18T12:27:37;4.73;;;1.80;;
5199;SDS011;2619;47.868;11.892;2023-09-18T12:30:03;3.63;;;1.37;;
5199;SDS011;2619;47.868;11.892;2023-09-18T12:32:30;4.63;;;1.50;;
5199;SDS011;2619;47.868;11.892;2023-09-18T12:34:57;3.30;;;1.50;;
5199;SDS011;2619;47.868;11.892;2023-09-18T12:37:23;3.03;;;1.30;;
5199;SDS011;2619;47.868;11.892;2023-09-18T12:39:49;4.00;;;1.50;;
5199;SDS011;2619;47.868;11.892;2023-09-18T12:42:17;5.07;;;1.83;;
5199;SDS011;2619;47.868;11.892;2023-09-18T12:44:45;3.70;;;1.60;;
5199;SDS011;2619;47.868;11.892;2023-09-18T12:47:12;3.80;;;1.67;;
5199;SDS011;2619;47.868;11.892;2023-09-18T12:49:37;4.47;;;1.50;;
5199;SDS011;2619;47.868;11.892;2023-09-18T12:52:05;3.40;;;0.97;;
5199;SDS011;2619;47.868;11.892;2023-09-18T12:54:40;4.70;;;1.10;;
5199;SDS011;2619;47.868;11.892;2023-09-18T12:57:07;3.33;;;1.60;;
5199;SDS011;2619;47.868;11.892;2023-09-18T12:59:37;4.87;;;1.30;;
5199;SDS011;2619;47.868;11.892;2023-09-18T13:02:06;4.10;;;1.40;;
5199;SDS011;2619;47.868;11.892;2023-09-18T13:04:32;2.63;;;1.00;;
5199;SDS011;2619;47.868;11.892;2023-09-18T13:07:11;3.20;;;0.80;;
5199;SDS011;2619;47.868;11.892;2023-09-18T13:09:38;3.43;;;0.80;;
5199;SDS011;2619;47.868;11.892;2023-09-18T13:12:04;3.53;;;1.40;;
5199;SDS011;2619;47.868;11.892;2023-09-18T13:14:56;3.13;;;1.00;;
5199;SDS011;2619;47.868;11.892;2023-09-18T13:17:36;3.93;;;1.03;;
5199;SDS011;2619;47.868;11.892;2023-09-18T13:20:08;3.20;;;1.10;;
5199;SDS011;2619;47.868;11.892;2023-09-18T13:22:52;2.53;;;1.10;;
5199;SDS011;2619;47.868;11.892;2023-09-18T13:25:21;3.40;;;1.17;;
5199;SDS011;2619;47.868;11.892;2023-09-18T13:27:51;4.13;;;1.20;;
5199;SDS011;2619;47.868;11.892;2023-09-18T13:30:17;3.73;;;0.70;;
5199;SDS011;2619;47.868;11.892;2023-09-18T13:32:45;4.13;;;0.80;;
5199;SDS011;2619;47.868;11.892;2023-09-18T13:35:13;2.50;;;0.70;;
5199;SDS011;2619;47.868;11.892;2023-09-18T13:37:39;2.80;;;0.80;;
5199;SDS011;2619;47.868;11.892;2023-09-18T13:40:05;5.03;;;1.00;;
5199;SDS011;2619;47.868;11.892;2023-09-18T13:42:33;3.57;;;1.37;;
5199;SDS011;2619;47.868;11.892;2023-09-18T13:44:59;3.17;;;0.90;;
5199;SDS011;2619;47.868;11.892;2023-09-18T13:47:34;4.43;;;0.90;;
5199;SDS011;2619;47.868;11.892;2023-09-18T13:50:01;3.40;;;0.60;;
5199;SDS011;2619;47.868;11.892;2023-09-18T13:52:31;3.27;;;0.83;;
5199;SDS011;2619;47.868;11.892;2023-09-18T13:54:58;2.67;;;0.77;;
5199;SDS011;2619;47.868;11.892;2023-09-18T13:57:24;3.97;;;1.40;;
5199;SDS011;2619;47.868;11.892;2023-09-18T13:59:50;2.80;;;0.90;;
5199;SDS011;2619;47.868;11.892;2023-09-18T14:02:16;5.43;;;0.83;;
5199;SDS011;2619;47.868;11.892;2023-09-18T14:04:43;2.80;;;0.83;;
5199;SDS011;2619;47.868;11.892;2023-09-18T14:07:09;3.00;;;0.70;;
5199;SDS011;2619;47.868;11.892;2023-09-18T14:09:36;3.43;;;0.90;;
5199;SDS011;2619;47.868;11.892;2023-09-18T14:12:02;5.10;;;0.90;;
5199;SDS011;2619;47.868;11.892;2023-09-18T14:14:30;3.57;;;1.00;;
5199;SDS011;2619;47.868;11.892;2023-09-18T14:16:57;5.97;;;1.37;;
5199;SDS011;2619;47.868;11.892;2023-09-18T14:19:23;2.80;;;0.63;;
5199;SDS011;2619;47.868;11.892;2023-09-18T14:21:49;3.87;;;0.87;;
5199;SDS011;2619;47.868;11.892;2023-09-18T14:24:15;2.40;;;0.90;;
5199;SDS011;2619;47.868;11.892;2023-09-18T14:26:47;2.43;;;0.80;;
5199;SDS011;2619;47.868;11.892;2023-09-18T14:29:14;4.50;;;1.37;;
5199;SDS011;2619;47.868;11.892;2023-09-18T14:31:40;2.67;;;0.80;;
5199;SDS011;2619;47.868;11.892;2023-09-18T14:34:05;3.17;;;1.17;;
5199;SDS011;2619;47.868;11.892;2023-09-18T14:36:31;2.80;;;0.83;;
5199;SDS011;2619;47.868;11.892;2023-09-18T14:38:59;2.70;;;0.90;;
5199;SDS011;2619;47.868;11.892;2023-09-18T14:41:25;1.80;;;0.60;;
5199;SDS011;2619;47.868;11.892;2023-09-18T14:43:51;2.10;;;0.70;;
5199;SDS011;2619;47.868;11.892;2023-09-18T14:46:17;3.47;;;0.90;;
5199;SDS011;2619;47.868;11.892;2023-09-18T14:48:43;2.67;;;1.00;;
5199;SDS011;2619;47.868;11.892;2023-09-18T14:51:08;2.60;;;0.70;;
5199;SDS011;2619;47.868;11.892;2023-09-18T14:53:34;3.70;;;1.10;;
5199;SDS011;2619;47.868;11.892;2023-09-18T14:56:00;2.60;;;0.97;;
5199;SDS011;2619;47.868;11.892;2023-09-18T14:58:26;2.67;;;1.00;;
5199;SDS011;2619;47.868;11.892;2023-09-18T15:00:52;2.40;;;0.80;;
5199;SDS011;2619;47.868;11.892;2023-09-18T15:03:18;2.47;;;0.80;;
5199;SDS011;2619;47.868;11.892;2023-09-18T15:05:44;1.80;;;0.70;;
5199;SDS011;2619;47.868;11.892;2023-09-18T15:08:10;2.00;;;0.63;;
5199;SDS011;2619;47.868;11.892;2023-09-18T15:10:36;2.63;;;1.07;;
5199;SDS011;2619;47.868;11.892;2023-09-18T15:13:02;1.87;;;0.67;;
5199;SDS011;2619;47.868;11.892;2023-09-18T15:15:28;3.50;;;0.77;;
5199;SDS011;2619;47.868;11.892;2023-09-18T15:17:53;3.43;;;0.93;;
5199;SDS011;2619;47.868;11.892;2023-09-18T15:20:19;2.33;;;0.93;;
5199;SDS011;2619;47.868;11.892;2023-09-18T15:22:48;4.60;;;1.10;;
5199;SDS011;2619;47.868;11.892;2023-09-18T15:25:14;3.30;;;0.80;;
5199;SDS011;2619;47.868;11.892;2023-09-18T15:27:41;1.97;;;0.67;;
5199;SDS011;2619;47.868;11.892;2023-09-18T15:30:07;2.63;;;0.90;;
5199;SDS011;2619;47.868;11.892;2023-09-18T15:32:52;3.93;;;1.07;;
5199;SDS011;2619;47.868;11.892;2023-09-18T15:35:19;2.60;;;0.80;;
5199;SDS011;2619;47.868;11.892;2023-09-18T15:37:45;4.47;;;1.00;;
5199;SDS011;2619;47.868;11.892;2023-09-18T15:40:11;1.67;;;0.63;;
5199;SDS011;2619;47.868;11.892;2023-09-18T15:42:40;2.00;;;0.50;;
5199;SDS011;2619;47.868;11.892;2023-09-18T15:45:06;3.07;;;1.03;;
5199;SDS011;2619;47.868;11.892;2023-09-18T15:47:33;2.20;;;0.80;;
5199;SDS011;2619;47.868;11.892;2023-09-18T15:49:59;2.90;;;1.07;;
5199;SDS011;2619;47.868;11.892;2023-09-18T15:52:25;2.70;;;0.97;;
5199;SDS011;2619;47.868;11.892;2023-09-18T15:54:51;2.30;;;0.80;;
5199;SDS011;2619;47.868;11.892;2023-09-18T15:57:16;2.33;;;0.90;;
5199;SDS011;2619;47.868;11.892;2023-09-18T15:59:42;2.93;;;0.90;;
5199;SDS011;2619;47.868;11.892;2023-09-18T16:02:08;3.63;;;1.10;;
5199;SDS011;2619;47.868;11.892;2023-09-18T16:04:34;6.23;;;1.57;;
5199;SDS011;2619;47.868;11.892;2023-09-18T16:07:01;2.87;;;0.87;;
5199;SDS011;2619;47.868;11.892;2023-09-18T16:09:27;3.10;;;1.17;;
5199;SDS011;2619;47.868;11.892;2023-09-18T16:11:52;6.03;;;1.60;;
5199;SDS011;2619;47.868;11.892;2023-09-18T16:14:18;4.57;;;1.37;;
5199;SDS011;2619;47.868;11.892;2023-09-18T16:16:45;4.07;;;0.90;;
5199;SDS011;2619;47.868;11.892;2023-09-18T16:19:11;3.70;;;1.03;;
5199;SDS011;2619;47.868;11.892;2023-09-18T16:21:37;2.40;;;0.77;;
5199;SDS011;2619;47.868;11.892;2023-09-18T16:24:02;4.27;;;1.03;;
5199;SDS011;2619;47.868;11.892;2023-09-18T16:26:32;2.50;;;1.10;;
5199;SDS011;2619;47.868;11.892;2023-09-18T16:28:58;2.90;;;1.03;;
5199;SDS011;2619;47.868;11.892;2023-09-18T16:31:23;2.50;;;0.90;;